George R Carr Memorial Air Field


Codes: KBXA/BXA
Name: George R Carr Memorial Air Field
City: Bogalusa
Country: United States
Elevation: 119 ft.

Photos at George R Carr Memorial Air Field


   Photos courtesy of SpottingLog. You can add your own sightings and photos by signing up for a free trial today.



No photos found.

Weather at George R Carr Memorial Air Field


Time (UTC)DescriptionTempratureWindCloud coverageVisibilityPressureHumidity
17-Jun-2024 06:00Light Rain24°C4 mph, E33%10000m1016hPa92%
17-Jun-2024 09:00Light Rain24°C4 mph, SE67%10000m1015hPa94%
17-Jun-2024 12:00Moderate Rain23°C2 mph, SE90%10000m1015hPa97%
17-Jun-2024 15:00Light Rain29°C7 mph, SE40%10000m1016hPa72%
17-Jun-2024 18:00Light Rain29°C7 mph, SE70%10000m1015hPa75%
17-Jun-2024 21:00Light Rain29°C7 mph, S100%10000m1014hPa72%
18-Jun-2024 00:00Light Rain26°C4 mph, SE100%10000m1015hPa80%
18-Jun-2024 03:00Moderate Rain23°C9 mph, SE100%10000m1016hPa93%
18-Jun-2024 06:00Light Rain22°C2 mph, E100%10000m1015hPa98%
18-Jun-2024 09:00Overcast Clouds22°C4 mph, E100%10000m1014hPa97%
18-Jun-2024 12:00Light Rain22°C4 mph, E100%6020m1014hPa98%
18-Jun-2024 15:00Light Rain22°C4 mph, E100%10000m1015hPa99%
18-Jun-2024 18:00Moderate Rain23°C4 mph, E100%7974m1015hPa98%
18-Jun-2024 21:00Light Rain23°C7 mph, E100%10000m1015hPa96%
19-Jun-2024 00:00Light Rain23°C4 mph, NE100%10000m1015hPa96%
19-Jun-2024 03:00Overcast Clouds22°C4 mph, NE100%10000m1015hPa96%
19-Jun-2024 06:00Overcast Clouds21°C4 mph, NE97%10000m1015hPa96%
19-Jun-2024 09:00Overcast Clouds22°C7 mph, E96%10000m1014hPa95%
19-Jun-2024 12:00Overcast Clouds23°C7 mph, E97%10000m1015hPa91%
19-Jun-2024 15:00Light Rain28°C11 mph, E85%7025m1016hPa74%
19-Jun-2024 18:00Light Rain29°C9 mph, SE91%10000m1016hPa79%
19-Jun-2024 21:00Light Rain30°C11 mph, SE70%10000m1015hPa63%
20-Jun-2024 00:00Light Rain25°C4 mph, SE82%10000m1015hPa90%
20-Jun-2024 03:00Overcast Clouds23°C4 mph, E92%10000m1017hPa95%
20-Jun-2024 06:00Overcast Clouds22°C4 mph, E96%10000m1017hPa95%
20-Jun-2024 09:00Overcast Clouds21°C4 mph, NE100%10000m1017hPa96%
20-Jun-2024 12:00Overcast Clouds22°C7 mph, NE100%10000m1018hPa92%
20-Jun-2024 15:00Overcast Clouds28°C9 mph, E100%10000m1020hPa60%
20-Jun-2024 18:00Overcast Clouds31°C9 mph, E100%10000m1019hPa37%
20-Jun-2024 21:00Overcast Clouds33°C7 mph, E96%10000m1017hPa40%
21-Jun-2024 00:00Overcast Clouds27°C4 mph, SE97%10000m1018hPa69%
21-Jun-2024 03:00Broken Clouds23°C2 mph, SE64%10000m1019hPa88%
21-Jun-2024 06:00Scattered Clouds22°C4 mph, NE43%10000m1019hPa88%
21-Jun-2024 09:00Overcast Clouds21°C4 mph, NE99%10000m1018hPa91%
21-Jun-2024 12:00Broken Clouds22°C4 mph, NE81%10000m1019hPa80%
21-Jun-2024 15:00Few Clouds29°C4 mph, E22%10000m1019hPa51%
21-Jun-2024 18:00Few Clouds34°C4 mph, E11%10000m1018hPa38%
21-Jun-2024 21:00Few Clouds36°C7 mph, NE13%10000m1016hPa30%
22-Jun-2024 00:00Scattered Clouds29°C2 mph, S34%10000m1016hPa64%
22-Jun-2024 03:00Few Clouds25°C2 mph, S24%10000m1017hPa78%